createdAt,value
2023-05-17T00:02:30.970Z,13.70
2023-05-17T00:07:33.571Z,14.00
2023-05-17T00:12:36.048Z,14.00
2023-05-17T00:17:38.733Z,13.90
2023-05-17T00:22:43.240Z,13.90
2023-05-17T00:27:45.907Z,14.00
2023-05-17T00:32:48.598Z,13.90
2023-05-17T00:37:51.677Z,14.10
2023-05-17T00:42:54.150Z,13.90
2023-05-17T00:47:58.299Z,13.90
2023-05-17T00:53:01.712Z,14.10
2023-05-17T00:58:04.662Z,14.00
2023-05-17T01:03:07.379Z,13.90
2023-05-17T01:08:10.116Z,14.00
2023-05-17T01:13:53.478Z,13.70
2023-05-17T01:19:12.638Z,13.50
2023-05-17T01:24:39.942Z,13.70
2023-05-17T01:29:44.957Z,13.30
2023-05-17T01:34:47.498Z,13.40
2023-05-17T01:39:50.313Z,13.30
2023-05-17T01:44:55.823Z,13.10
2023-05-17T01:50:00.559Z,12.70
2023-05-17T01:55:30.168Z,12.40
2023-05-17T02:00:33.060Z,12.30
2023-05-17T02:05:35.594Z,12.40
2023-05-17T02:10:38.331Z,12.50
2023-05-17T02:15:40.986Z,12.60
2023-05-17T02:20:43.632Z,12.40
2023-05-17T02:25:46.079Z,12.50
2023-05-17T02:30:48.730Z,12.40
2023-05-17T02:35:51.208Z,12.60
2023-05-17T02:40:55.310Z,12.60
2023-05-17T02:45:57.860Z,12.60
2023-05-17T02:51:00.343Z,12.90
2023-05-17T02:56:04.114Z,12.80
2023-05-17T03:01:07.151Z,12.70
2023-05-17T03:06:09.669Z,12.80
2023-05-17T03:11:13.577Z,12.80
2023-05-17T03:16:16.469Z,12.50
2023-05-17T03:21:19.654Z,12.50
2023-05-17T03:26:24.251Z,12.40
2023-05-17T03:31:28.015Z,12.60
2023-05-17T03:36:31.449Z,12.50
2023-05-17T03:41:34.796Z,12.50
2023-05-17T03:46:37.500Z,12.50
2023-05-17T03:51:41.022Z,12.30
2023-05-17T03:56:47.106Z,12.50
2023-05-17T04:01:50.194Z,12.40
2023-05-17T04:06:52.871Z,12.70
2023-05-17T04:11:55.573Z,12.70
2023-05-17T04:16:58.244Z,12.70
2023-05-17T04:22:01.039Z,12.70
2023-05-17T04:27:05.337Z,13.00
2023-05-17T04:32:08.565Z,13.40
2023-05-17T04:37:11.440Z,13.10
2023-05-17T04:42:14.904Z,13.20
2023-05-17T04:47:23.290Z,13.00
2023-05-17T04:52:27.625Z,13.00
2023-05-17T04:57:30.673Z,12.90
2023-05-17T05:02:39.301Z,12.90
2023-05-17T05:07:42.512Z,12.60
2023-05-17T05:12:45.949Z,13.30
2023-05-17T05:17:48.867Z,13.40
2023-05-17T05:22:51.581Z,13.20
2023-05-17T05:27:55.712Z,12.70
2023-05-17T05:32:58.530Z,12.90
2023-05-17T05:38:01.680Z,12.80
2023-05-17T05:43:04.276Z,12.00
2023-05-17T05:48:08.984Z,12.00
2023-05-17T05:53:18.875Z,12.30
2023-05-17T05:58:30.015Z,12.20
2023-05-17T06:03:32.664Z,11.90
2023-05-17T06:08:35.173Z,12.10
2023-05-17T06:13:37.661Z,12.60
2023-05-17T06:18:40.285Z,12.70
2023-05-17T06:23:42.817Z,13.40
2023-05-17T06:28:45.259Z,13.80
2023-05-17T06:33:47.881Z,13.70
2023-05-17T06:38:50.686Z,13.60
2023-05-17T06:43:53.105Z,13.10
2023-05-17T06:48:55.864Z,13.50
2023-05-17T06:53:58.774Z,14.00
2023-05-17T06:59:01.336Z,14.30
2023-05-17T07:04:04.133Z,14.70
2023-05-17T07:09:07.213Z,14.80
2023-05-17T07:14:09.771Z,15.00
2023-05-17T07:19:12.573Z,15.00
2023-05-17T07:24:15.401Z,14.60
2023-05-17T07:29:17.937Z,14.40
2023-05-17T07:34:20.560Z,14.90
2023-05-17T07:39:23.256Z,15.50
2023-05-17T07:44:25.797Z,16.60
2023-05-17T07:49:28.438Z,17.00
2023-05-17T07:54:31.487Z,16.60
2023-05-17T07:59:34.019Z,17.20
2023-05-17T08:04:36.658Z,18.00
2023-05-17T08:09:40.263Z,18.10
2023-05-17T08:14:43.185Z,17.40
2023-05-17T08:19:45.750Z,17.60
2023-05-17T08:24:48.311Z,18.10
2023-05-17T08:29:51.841Z,18.00
2023-05-17T08:34:55.008Z,17.40
2023-05-17T08:39:57.530Z,17.40
2023-05-17T08:45:00.106Z,17.20
2023-05-17T08:50:06.296Z,17.00
2023-05-17T08:55:09.647Z,16.90
2023-05-17T09:00:14.129Z,17.00
2023-05-17T09:05:16.946Z,16.70
2023-05-17T09:10:20.018Z,17.40
2023-05-17T09:15:24.187Z,17.80
2023-05-17T09:20:34.509Z,17.90
2023-05-17T09:25:37.486Z,17.90
2023-05-17T09:30:41.959Z,17.30
2023-05-17T09:35:44.504Z,17.40
2023-05-17T09:40:48.535Z,17.50
2023-05-17T09:45:58.487Z,17.60
2023-05-17T09:51:01.304Z,17.80
2023-05-17T09:56:05.771Z,17.60
2023-05-17T10:01:11.039Z,16.90
2023-05-17T10:06:23.757Z,16.80
2023-05-17T10:11:39.164Z,16.50
2023-05-17T10:16:43.113Z,16.70
2023-05-17T10:21:47.733Z,16.40
2023-05-17T10:26:51.144Z,16.70
2023-05-17T10:31:58.602Z,17.00
2023-05-17T10:37:02.351Z,17.30
2023-05-17T10:42:14.923Z,16.90
2023-05-17T10:47:18.150Z,16.50
2023-05-17T10:52:23.786Z,17.30
2023-05-17T10:57:50.806Z,17.50
2023-05-17T11:03:17.191Z,17.90
2023-05-17T11:08:21.386Z,17.90
2023-05-17T11:13:31.788Z,17.90
2023-05-17T11:18:51.300Z,18.90
2023-05-17T11:23:56.747Z,18.80
2023-05-17T11:29:12.834Z,18.70
2023-05-17T11:34:18.593Z,18.40
2023-05-17T11:39:22.925Z,18.40
2023-05-17T11:44:30.329Z,17.70
2023-05-17T11:49:37.165Z,18.00
2023-05-17T11:54:40.722Z,18.30
2023-05-17T11:59:43.649Z,18.40
2023-05-17T12:04:46.860Z,18.10
2023-05-17T12:09:50.236Z,17.60
2023-05-17T12:14:53.055Z,16.90
2023-05-17T12:19:55.927Z,17.70
2023-05-17T12:24:58.506Z,17.20
2023-05-17T12:30:15.378Z,17.30
2023-05-17T12:35:18.005Z,17.30
2023-05-17T12:40:20.750Z,16.90
2023-05-17T12:45:23.283Z,16.90
2023-05-17T12:50:32.464Z,17.40
2023-05-17T12:55:37.709Z,17.20
2023-05-17T13:00:40.337Z,16.60
2023-05-17T13:05:44.195Z,16.50
2023-05-17T13:10:46.851Z,16.50
2023-05-17T13:15:50.498Z,17.00
2023-05-17T13:20:53.060Z,17.40
2023-05-17T13:25:55.482Z,16.70
2023-05-17T13:30:57.908Z,16.70
2023-05-17T13:36:00.713Z,16.80
2023-05-17T13:41:03.462Z,16.60
2023-05-17T13:46:06.094Z,16.70
2023-05-17T13:51:08.709Z,16.50
2023-05-17T13:56:11.330Z,16.00
2023-05-17T14:06:18.369Z,15.20
2023-05-17T14:11:21.692Z,15.50
2023-05-17T14:16:25.401Z,15.60
2023-05-17T14:21:27.907Z,15.60
2023-05-17T14:26:30.625Z,16.00
2023-05-17T14:31:33.155Z,16.10
2023-05-17T14:36:36.866Z,16.10
2023-05-17T14:41:39.608Z,16.20
2023-05-17T14:46:42.074Z,16.20
2023-05-17T14:51:45.132Z,16.00
2023-05-17T14:56:48.085Z,15.90
2023-05-17T15:01:50.919Z,16.00
2023-05-17T15:06:53.472Z,15.80
2023-05-17T15:12:00.846Z,15.90
2023-05-17T15:17:04.385Z,16.10
2023-05-17T15:22:06.891Z,16.20
2023-05-17T15:27:12.629Z,16.30
2023-05-17T15:32:15.071Z,16.20
2023-05-17T15:37:17.972Z,16.00
2023-05-17T15:42:20.422Z,15.90
2023-05-17T15:47:28.671Z,16.00
2023-05-17T15:52:37.859Z,15.70
2023-05-17T15:57:41.433Z,15.70
2023-05-17T16:02:43.927Z,15.80
2023-05-17T16:07:46.662Z,15.70
2023-05-17T16:12:50.364Z,15.60
2023-05-17T16:17:53.178Z,15.50
2023-05-17T16:22:56.259Z,15.70
2023-05-17T16:27:58.742Z,15.70
2023-05-17T16:33:01.402Z,15.50
2023-05-17T16:38:03.957Z,15.60
2023-05-17T16:43:06.798Z,15.50
2023-05-17T16:48:09.332Z,15.50
2023-05-17T16:53:12.424Z,15.10
2023-05-17T16:58:15.241Z,15.00
2023-05-17T17:03:17.772Z,15.00
2023-05-17T17:08:20.416Z,15.00
2023-05-17T17:13:22.953Z,15.00
2023-05-17T17:18:25.721Z,15.00
2023-05-17T17:23:28.238Z,14.90
2023-05-17T17:28:30.897Z,14.70
2023-05-17T17:33:37.087Z,14.50
2023-05-17T17:38:39.778Z,14.50
2023-05-17T17:43:45.820Z,14.40
2023-05-17T17:48:48.279Z,14.20
2023-05-17T17:53:53.948Z,14.10
2023-05-17T17:58:56.489Z,14.20
2023-05-17T18:03:59.255Z,14.20
2023-05-17T18:09:01.753Z,14.00
2023-05-17T18:14:04.455Z,13.80
2023-05-17T18:19:07.045Z,13.90
2023-05-17T18:24:09.932Z,13.60
2023-05-17T18:29:12.466Z,13.40
2023-05-17T18:34:15.134Z,13.50
2023-05-17T18:39:17.569Z,13.30
2023-05-17T18:44:20.629Z,13.40
2023-05-17T18:49:37.445Z,13.30
2023-05-17T18:54:40.126Z,13.30
2023-05-17T18:59:42.704Z,13.30
2023-05-17T19:04:45.422Z,13.40
2023-05-17T19:09:47.955Z,13.40
2023-05-17T19:14:50.583Z,13.50
2023-05-17T19:19:53.069Z,13.50
2023-05-17T19:24:55.984Z,13.70
2023-05-17T19:29:58.617Z,13.70
2023-05-17T19:35:04.042Z,13.80
2023-05-17T19:40:07.147Z,13.80
2023-05-17T19:45:11.074Z,13.90
2023-05-17T19:50:14.032Z,13.70
2023-05-17T19:55:21.893Z,13.50
2023-05-17T20:00:24.558Z,13.30
2023-05-17T20:05:27.317Z,13.00
2023-05-17T20:10:32.760Z,13.00
2023-05-17T20:15:35.588Z,12.90
2023-05-17T20:20:38.006Z,13.00
2023-05-17T20:25:41.931Z,12.50
2023-05-17T20:30:45.584Z,12.20
2023-05-17T20:35:48.058Z,12.10
2023-05-17T20:40:52.043Z,11.80
2023-05-17T20:45:54.992Z,11.70
2023-05-17T20:50:57.733Z,11.70
2023-05-17T20:56:00.373Z,11.60
2023-05-17T21:01:02.985Z,11.30
2023-05-17T21:06:06.812Z,11.20
2023-05-17T21:11:09.699Z,11.20
2023-05-17T21:16:12.205Z,11.00
2023-05-17T21:21:14.882Z,11.10
2023-05-17T21:26:17.860Z,11.00
2023-05-17T21:31:21.525Z,10.90
2023-05-17T21:36:24.314Z,11.00
2023-05-17T21:41:29.078Z,11.10
2023-05-17T21:46:31.695Z,11.10
2023-05-17T21:51:34.315Z,11.00
2023-05-17T21:56:38.270Z,10.70
2023-05-17T22:01:40.783Z,10.60
2023-05-17T22:06:43.288Z,10.60
2023-05-17T22:11:46.567Z,10.40
2023-05-17T22:21:52.949Z,10.10
2023-05-17T22:26:58.630Z,10.20
2023-05-17T22:32:01.481Z,9.90
2023-05-17T22:37:07.341Z,9.70
2023-05-17T22:42:10.124Z,10.00
2023-05-17T22:47:14.863Z,10.30
2023-05-17T22:52:18.732Z,10.30
2023-05-17T22:57:21.552Z,10.20
2023-05-17T23:02:24.094Z,9.80
2023-05-17T23:07:27.870Z,9.80
2023-05-17T23:17:35.603Z,9.50
2023-05-17T23:22:39.006Z,9.60
2023-05-17T23:27:44.308Z,9.30
2023-05-17T23:32:48.655Z,8.90
2023-05-17T23:37:51.493Z,9.00
2023-05-17T23:42:54.013Z,8.90
2023-05-17T23:48:00.388Z,8.80
2023-05-17T23:53:03.652Z,8.80
2023-05-17T23:58:06.141Z,8.60
